Time;durP1;ratioP1;P1;durP2;ratioP2;P2;SDS_P1;SDS_P2;PMS_P1;PMS_P2;Temp;Humidity;BMP_temperature;BMP_pressure;BME280_temperature;BME280_humidity;BME280_pressure;Samples;Min_cycle;Max_cycle;Signal;HPM_P1;HPM_P2
2021/12/22 00:02:27;;;;;;;7.50;4.03;;;-1.70;99.90;;;;;;4915986;29;20023;-89
2021/12/22 00:04:55;;;;;;;9.75;5.15;;;-1.80;99.90;;;;;;4914593;29;20069;-89
2021/12/22 00:07:21;;;;;;;8.70;5.47;;;-0.70;99.90;;;;;;4917344;29;20032;-84
2021/12/22 00:09:46;;;;;;;13.93;5.90;;;-2.90;99.90;;;;;;4914999;29;20042;-93
2021/12/22 00:12:31;;;;;;;5.15;3.25;;;-1.60;99.90;;;;;;4924637;29;20086;-94
2021/12/22 00:14:57;;;;;;;13.82;5.70;;;-1.40;99.90;;;;;;4914605;29;20182;-80
2021/12/22 00:17:22;;;;;;;12.85;5.88;;;-1.60;99.90;;;;;;4931382;29;20099;-79
2021/12/22 00:19:48;;;;;;;8.13;5.55;;;-2.20;99.90;;;;;;4914426;29;20035;-80
2021/12/22 00:22:22;;;;;;;10.90;6.70;;;-2.50;99.90;;;;;;4918623;29;20023;-91
2021/12/22 00:24:49;;;;;;;7.38;4.55;;;-3.00;99.90;;;;;;4946596;29;20040;-85
2021/12/22 00:27:14;;;;;;;7.43;3.25;;;-0.40;99.90;;;;;;4923429;29;20137;-84
2021/12/22 00:29:42;;;;;;;13.52;6.28;;;-1.40;99.90;;;;;;4920893;29;20115;-83
2021/12/22 00:32:10;;;;;;;9.45;5.50;;;-3.00;99.90;;;;;;5174356;23;20101;-83
2021/12/22 00:34:48;;;;;;;11.25;4.40;;;-1.30;99.90;;;;;;4951537;28;20067;-81
2021/12/22 00:37:16;;;;;;;7.05;3.85;;;-1.50;99.90;;;;;;4922717;29;20123;-88
2021/12/22 00:39:43;;;;;;;6.70;4.65;;;-1.40;99.90;;;;;;4915833;29;20028;-79
2021/12/22 00:42:14;;;;;;;7.93;6.47;;;-2.00;99.90;;;;;;4926475;29;20058;-79
2021/12/22 00:44:56;;;;;;;16.88;4.90;;;;;;;;;;4942155;29;20056;-82
2021/12/22 00:47:25;;;;;;;6.03;4.22;;;-2.90;99.90;;;;;;4918020;29;20028;-82
2021/12/22 00:49:51;;;;;;;8.57;5.68;;;-2.00;99.90;;;;;;4936165;29;20040;-94
2021/12/22 00:52:17;;;;;;;6.28;4.70;;;-5.60;99.90;;;;;;4903267;29;20035;-90
2021/12/22 00:54:43;;;;;;;6.40;4.97;;;-2.50;99.90;;;;;;4917199;29;20499;-83
2021/12/22 00:57:10;;;;;;;5.80;4.95;;;-1.80;99.90;;;;;;4916672;29;20130;-88
2021/12/22 00:59:37;;;;;;;4.38;3.90;;;-1.40;99.90;;;;;;4934287;29;20046;-86
2021/12/22 01:02:06;;;;;;;4.93;4.40;;;-2.80;99.90;;;;;;4917332;29;20032;-84
2021/12/22 01:04:32;;;;;;;;;;;-2.90;99.90;;;;;;4918592;29;20035;-86
2021/12/22 01:06:58;;;;;;;7.20;5.93;;;-2.30;99.90;;;;;;4918167;29;19907;-82
2021/12/22 01:09:23;;;;;;;9.50;4.40;;;-2.90;99.90;;;;;;4920012;29;20028;-88
2021/12/22 01:11:50;;;;;;;8.10;5.68;;;-1.40;99.90;;;;;;4921585;29;20043;-90
2021/12/22 01:14:16;;;;;;;4.82;4.43;;;-2.60;99.90;;;;;;4916737;29;20500;-83
2021/12/22 01:16:47;;;;;;;4.40;3.67;;;-2.60;99.90;;;;;;4918045;29;20032;-90
2021/12/22 01:19:19;;;;;;;11.27;4.78;;;-0.90;99.90;;;;;;4933449;29;20091;-81
2021/12/22 01:21:51;;;;;;;9.05;4.82;;;-2.10;99.90;;;;;;4915385;29;20032;-92
2021/12/22 01:24:31;;;;;;;20.77;5.50;;;-2.80;99.90;;;;;;4915306;29;20375;-79
2021/12/22 01:27:04;;;;;;;6.57;4.03;;;-1.60;99.90;;;;;;4932541;29;20027;-82
2021/12/22 01:29:32;;;;;;;6.75;5.28;;;-2.00;99.90;;;;;;4914945;29;20122;-81
2021/12/22 01:31:58;;;;;;;15.93;5.43;;;-2.50;99.90;;;;;;4916119;29;20035;-83
2021/12/22 01:34:27;;;;;;;12.23;7.28;;;-1.30;99.90;;;;;;4933087;29;20032;-84
2021/12/22 01:36:53;;;;;;;5.22;4.15;;;-3.10;99.90;;;;;;4932534;29;20493;-82
2021/12/22 01:39:19;;;;;;;5.10;4.60;;;-2.40;99.90;;;;;;4931769;29;20111;-82
2021/12/22 01:41:45;;;;;;;6.93;4.72;;;-2.00;99.90;;;;;;4915566;29;20107;-82
2021/12/22 01:44:24;;;;;;;9.40;7.45;;;-2.50;99.90;;;;;;4915180;29;20046;-83
2021/12/22 01:49:53;;;;;;;27.17;4.20;;;-2.90;99.90;;;;;;4931521;29;20182;-83
2021/12/22 01:52:20;;;;;;;11.18;7.20;;;-3.00;99.90;;;;;;4915124;29;20035;-82
2021/12/22 01:54:58;;;;;;;8.10;6.93;;;-1.80;99.90;;;;;;4932942;29;20039;-82
2021/12/22 01:57:24;;;;;;;12.02;5.97;;;-3.00;99.90;;;;;;4933231;29;20524;-86
2021/12/22 01:59:50;;;;;;;7.60;6.07;;;-3.10;99.90;;;;;;4915256;29;20050;-82
2021/12/22 02:02:16;;;;;;;13.25;5.07;;;-3.00;99.90;;;;;;4932015;29;20030;-82
2021/12/22 02:04:42;;;;;;;16.30;7.70;;;-3.00;99.90;;;;;;4931555;29;20536;-81
2021/12/22 02:07:08;;;;;;;18.95;8.02;;;-2.70;99.90;;;;;;4915376;29;20048;-83
2021/12/22 02:12:19;;;;;;;7.32;2.90;;;-2.20;99.90;;;;;;4932037;29;20083;-82
2021/12/22 02:14:46;;;;;;;6.60;4.13;;;-3.00;99.90;;;;;;4915031;29;20477;-82
2021/12/22 02:17:13;;;;;;;11.13;6.07;;;-2.90;99.90;;;;;;4931531;29;20035;-83
2021/12/22 02:19:44;;;;;;;6.13;3.45;;;-2.70;99.90;;;;;;4914277;29;20079;-81
2021/12/22 02:22:13;;;;;;;18.95;5.53;;;-2.70;99.90;;;;;;4915525;29;20034;-81
2021/12/22 02:24:44;;;;;;;;;;;-2.90;99.90;;;;;;4913293;29;20421;-81
2021/12/22 02:27:18;;;;;;;14.95;4.72;;;-1.70;99.90;;;;;;4912898;29;20359;-83
2021/12/22 02:29:47;;;;;;;7.40;4.05;;;-2.90;99.90;;;;;;4930483;29;20027;-82
2021/12/22 02:32:31;;;;;;;9.60;6.30;;;-2.90;99.90;;;;;;4929891;29;20138;-82
2021/12/22 02:35:02;;;;;;;8.43;3.92;;;-3.00;99.90;;;;;;4912526;29;20027;-82
2021/12/22 02:37:29;;;;;;;7.93;3.58;;;-2.00;99.90;;;;;;4929532;29;20058;-81
2021/12/22 02:40:08;;;;;;;6.90;3.85;;;-2.30;99.90;;;;;;4913851;29;20051;-84
2021/12/22 02:42:34;;;;;;;7.65;3.03;;;-2.10;99.90;;;;;;4931788;29;20578;-82
2021/12/22 02:45:08;;;;;;;8.25;5.15;;;-1.90;99.90;;;;;;4912167;29;20063;-83
2021/12/22 02:47:34;;;;;;;9.20;5.07;;;-2.60;99.90;;;;;;4912396;29;20242;-83
2021/12/22 02:50:00;;;;;;;5.32;4.80;;;-1.80;99.90;;;;;;4912984;29;20071;-82
2021/12/22 02:52:33;;;;;;;10.02;4.22;;;-2.90;99.90;;;;;;4912712;29;20024;-82
2021/12/22 02:54:59;;;;;;;8.57;3.97;;;-2.30;99.90;;;;;;4930640;29;20447;-83
2021/12/22 02:57:37;;;;;;;20.80;8.88;;;-1.70;99.90;;;;;;4930920;29;20031;-81
2021/12/22 03:00:48;;;;;;;16.95;5.90;;;-2.10;99.90;;;;;;4914463;29;20098;-81
2021/12/22 03:03:15;;;;;;;10.90;5.95;;;-3.20;99.90;;;;;;4929840;29;20036;-80
2021/12/22 03:05:41;;;;;;;7.50;3.88;;;-2.20;99.90;;;;;;4916092;29;20039;-81
2021/12/22 03:08:08;;;;;;;11.75;6.63;;;-2.00;99.90;;;;;;4916383;29;20075;-82
2021/12/22 03:10:34;;;;;;;15.20;5.93;;;-3.20;99.90;;;;;;4916688;29;20028;-80
2021/12/22 03:13:03;;;;;;;11.70;6.03;;;-3.20;99.90;;;;;;4916307;29;20114;-85
2021/12/22 03:15:30;;;;;;;13.93;6.85;;;-1.80;99.90;;;;;;4934141;29;20028;-80
2021/12/22 03:17:55;;;;;;;30.55;8.30;;;-3.20;99.90;;;;;;4916304;29;20031;-82
2021/12/22 03:20:22;;;;;;;16.10;6.13;;;-2.90;99.90;;;;;;4933360;29;20553;-80
2021/12/22 03:22:48;;;;;;;10.30;5.07;;;-3.20;99.90;;;;;;4916118;29;20437;-82
2021/12/22 03:25:17;;;;;;;11.02;5.32;;;-3.20;99.90;;;;;;4933514;29;20035;-80
2021/12/22 03:27:49;;;;;;;7.25;4.32;;;-3.20;99.90;;;;;;4917116;29;20035;-80
2021/12/22 03:30:17;;;;;;;14.27;7.28;;;-3.10;99.90;;;;;;4916616;29;20046;-80
2021/12/22 03:32:43;;;;;;;22.97;7.27;;;-3.20;99.90;;;;;;4933259;29;20055;-83
2021/12/22 03:35:15;;;;;;;13.25;8.30;;;-2.60;99.90;;;;;;4916366;29;20292;-80
2021/12/22 03:37:43;;;;;;;11.75;5.70;;;-1.60;99.90;;;;;;4916221;29;20595;-80
2021/12/22 03:40:09;;;;;;;12.18;6.43;;;-3.20;99.90;;;;;;4916251;29;20070;-80
2021/12/22 03:42:35;;;;;;;15.25;6.55;;;-3.20;99.90;;;;;;4933264;29;20051;-85
2021/12/22 03:45:00;;;;;;;9.75;4.55;;;-1.90;99.90;;;;;;4916329;29;20477;-81
2021/12/22 03:47:26;;;;;;;8.68;5.05;;;-3.10;99.90;;;;;;4917796;29;20024;-80
2021/12/22 03:49:52;;;;;;;10.60;6.65;;;-2.40;99.90;;;;;;4937343;29;20027;-80
2021/12/22 03:52:18;;;;;;;21.33;8.95;;;-1.70;99.90;;;;;;4933426;29;20027;-82
2021/12/22 03:54:44;;;;;;;9.30;5.65;;;-1.90;99.90;;;;;;4916185;29;20034;-79
2021/12/22 03:57:09;;;;;;;17.48;5.07;;;-3.20;99.90;;;;;;4915824;29;20019;-80
2021/12/22 03:59:35;;;;;;;10.90;5.10;;;-2.60;99.90;;;;;;4915899;29;20035;-79
2021/12/22 04:02:03;;;;;;;9.48;5.78;;;-3.20;99.90;;;;;;4916100;29;20020;-80
2021/12/22 04:04:29;;;;;;;7.00;4.22;;;-3.20;99.90;;;;;;4932775;29;20039;-80
2021/12/22 04:06:54;;;;;;;8.88;3.75;;;-3.20;99.90;;;;;;4932868;29;20027;-80
2021/12/22 04:09:26;;;;;;;10.73;5.50;;;-1.80;99.90;;;;;;4932665;29;20024;-80
2021/12/22 04:11:53;;;;;;;9.18;4.70;;;-2.90;99.90;;;;;;4915477;29;20075;-80
2021/12/22 04:14:19;;;;;;;8.05;4.45;;;-1.90;99.90;;;;;;4932180;29;20618;-81
2021/12/22 04:16:44;;;;;;;13.60;3.95;;;-2.00;99.90;;;;;;4915298;29;20058;-80
2021/12/22 04:19:10;;;;;;;6.97;6.28;;;-2.90;99.90;;;;;;4914805;29;20366;-83
2021/12/22 04:21:36;;;;;;;21.38;6.05;;;-2.90;99.90;;;;;;4913470;29;20024;-86
2021/12/22 04:24:02;;;;;;;20.48;5.60;;;-3.00;99.90;;;;;;4930551;29;20181;-79
2021/12/22 04:26:31;;;;;;;15.18;6.20;;;-3.00;99.90;;;;;;4930834;29;20106;-79
2021/12/22 04:28:56;;;;;;;7.43;6.10;;;-2.30;99.90;;;;;;4930661;29;20024;-79
2021/12/22 04:31:22;;;;;;;13.65;4.13;;;-3.00;99.90;;;;;;4930737;29;20035;-79
2021/12/22 04:33:48;;;;;;;5.88;3.10;;;-2.30;99.90;;;;;;4913578;29;20081;-80
2021/12/22 04:36:14;;;;;;;9.15;6.63;;;-1.50;99.90;;;;;;4913653;29;20576;-79
2021/12/22 04:38:39;;;;;;;12.13;4.90;;;-2.80;99.90;;;;;;4913041;29;20034;-79
2021/12/22 04:41:05;;;;;;;10.52;5.15;;;-2.10;99.90;;;;;;4913593;29;20366;-80
2021/12/22 04:43:31;;;;;;;17.73;7.03;;;-2.00;99.90;;;;;;4913416;29;20080;-82
2021/12/22 04:45:57;;;;;;;5.22;4.53;;;-2.10;99.90;;;;;;4913754;29;20031;-84
2021/12/22 04:48:22;;;;;;;7.28;3.42;;;-2.80;99.90;;;;;;4915270;29;20055;-80
2021/12/22 04:50:48;;;;;;;13.20;6.93;;;-1.80;99.90;;;;;;4915142;29;20028;-79
2021/12/22 04:53:26;;;;;;;13.15;7.65;;;-3.30;99.90;;;;;;4914993;29;20034;-79
2021/12/22 04:55:52;;;;;;;15.90;6.30;;;-2.80;99.90;;;;;;4932389;29;20054;-84
2021/12/22 04:58:18;;;;;;;17.05;6.57;;;-2.30;99.90;;;;;;4915227;29;20024;-82
2021/12/22 05:00:44;;;;;;;14.88;5.28;;;-3.40;99.90;;;;;;4915540;29;20059;-80
2021/12/22 05:03:10;;;;;;;25.65;6.20;;;-3.40;99.90;;;;;;4914847;29;20027;-79
2021/12/22 05:05:35;;;;;;;10.98;7.88;;;-3.40;99.90;;;;;;4932025;29;20040;-82
2021/12/22 05:08:01;;;;;;;8.32;5.28;;;-3.40;99.90;;;;;;4914550;29;20118;-80
2021/12/22 05:10:28;;;;;;;9.68;4.15;;;-2.00;99.90;;;;;;4931939;29;20054;-82
2021/12/22 05:12:54;;;;;;;7.15;4.60;;;-1.90;99.90;;;;;;4932005;29;20059;-79
2021/12/22 05:15:22;;;;;;;8.05;6.13;;;-2.50;99.90;;;;;;4914754;29;20059;-80
2021/12/22 05:20:23;;;;;;;12.23;7.07;;;-2.50;99.90;;;;;;4931753;29;20481;-79
2021/12/22 05:22:48;;;;;;;9.65;4.18;;;-2.20;99.90;;;;;;4931672;29;20519;-83
2021/12/22 05:25:15;;;;;;;5.93;4.75;;;-2.30;99.90;;;;;;4917510;29;20055;-78
2021/12/22 05:27:41;;;;;;;7.00;5.22;;;-3.30;99.90;;;;;;4918192;29;20075;-88
2021/12/22 05:30:08;;;;;;;10.38;6.75;;;-3.30;99.90;;;;;;4917931;29;20511;-83
2021/12/22 05:32:35;;;;;;;9.05;5.82;;;-3.30;99.90;;;;;;4917570;29;20095;-84
2021/12/22 05:35:04;;;;;;;11.98;6.78;;;-2.80;99.90;;;;;;4918591;29;20095;-79
2021/12/22 05:37:29;;;;;;;11.30;4.90;;;-3.30;99.90;;;;;;4918503;29;20067;-80
2021/12/22 05:39:56;;;;;;;12.35;3.67;;;-3.40;99.90;;;;;;4918453;29;20078;-80
2021/12/22 05:42:26;;;;;;;10.38;4.35;;;-3.40;99.90;;;;;;4918292;29;20024;-79
2021/12/22 05:44:51;;;;;;;11.65;3.10;;;-2.80;99.90;;;;;;4935446;29;20527;-85
2021/12/22 05:47:17;;;;;;;8.25;4.20;;;-3.30;99.90;;;;;;4935598;29;20055;-83
2021/12/22 05:49:44;;;;;;;12.85;6.03;;;-2.30;99.90;;;;;;4935151;29;20062;-83
2021/12/22 05:52:10;;;;;;;6.13;3.95;;;-2.60;99.90;;;;;;4934674;29;20110;-79
2021/12/22 05:54:37;;;;;;;12.80;5.35;;;-2.70;99.90;;;;;;4917849;29;20027;-80
2021/12/22 05:57:03;;;;;;;8.25;5.45;;;-3.50;99.90;;;;;;4917578;29;20161;-79
2021/12/22 05:59:29;;;;;;;15.65;5.95;;;-3.50;99.90;;;;;;4917993;29;20065;-78
2021/12/22 06:01:55;;;;;;;6.90;5.65;;;-2.40;99.90;;;;;;4917745;29;20493;-80
2021/12/22 06:04:20;;;;;;;15.27;6.13;;;-3.30;99.90;;;;;;4934269;29;20047;-79
2021/12/22 06:06:46;;;;;;;5.15;4.07;;;-3.40;99.90;;;;;;4916939;29;20067;-79
2021/12/22 06:09:12;;;;;;;10.35;4.40;;;-3.40;99.90;;;;;;4917013;29;20055;-78
2021/12/22 06:11:37;;;;;;;4.75;4.43;;;-2.10;99.90;;;;;;4917021;29;20409;-77
2021/12/22 06:14:03;;;;;;;9.25;6.65;;;-2.80;99.90;;;;;;4933196;29;20389;-77
2021/12/22 06:16:30;;;;;;;8.60;4.68;;;-3.30;99.90;;;;;;4917190;29;20050;-78
2021/12/22 06:19:01;;;;;;;7.13;3.75;;;-2.90;99.90;;;;;;4934395;29;20095;-80
2021/12/22 06:21:26;;;;;;;15.93;5.95;;;-2.60;99.90;;;;;;4934101;29;20107;-78
2021/12/22 06:23:52;;;;;;;14.07;4.57;;;-2.50;99.90;;;;;;4933992;29;20122;-78
2021/12/22 06:26:18;;;;;;;9.15;3.83;;;-3.10;99.90;;;;;;4917027;29;20043;-78
2021/12/22 06:28:43;;;;;;;9.10;3.78;;;-2.40;99.90;;;;;;4933833;29;20134;-77
2021/12/22 06:31:09;;;;;;;7.80;4.97;;;-2.40;99.90;;;;;;4933971;29;20051;-77
2021/12/22 06:33:35;;;;;;;10.85;6.45;;;-1.90;99.90;;;;;;4916668;29;20052;-79
2021/12/22 06:36:01;;;;;;;12.73;6.72;;;-2.30;99.90;;;;;;4916489;29;20376;-78
2021/12/22 06:38:27;;;;;;;8.55;6.60;;;-2.70;99.90;;;;;;4933838;29;20390;-77
2021/12/22 06:40:52;;;;;;;7.63;4.43;;;-2.00;99.90;;;;;;4933912;29;20417;-78
2021/12/22 06:43:18;;;;;;;11.95;6.35;;;-1.40;99.90;;;;;;4933914;29;20034;-78
2021/12/22 06:45:44;;;;;;;12.10;4.35;;;-1.60;99.90;;;;;;4934229;29;20034;-77
2021/12/22 06:48:10;;;;;;;16.60;4.43;;;-3.30;99.90;;;;;;4933982;29;20023;-78
2021/12/22 06:50:35;;;;;;;9.90;4.60;;;-2.00;99.90;;;;;;4933702;29;20469;-78
2021/12/22 06:53:01;;;;;;;12.68;6.40;;;-1.50;99.90;;;;;;4916320;29;20043;-77
2021/12/22 06:55:27;;;;;;;11.68;5.70;;;-2.30;99.90;;;;;;4933989;29;20024;-78
2021/12/22 06:57:53;;;;;;;6.75;5.00;;;-1.40;99.90;;;;;;4932285;29;20051;-78
2021/12/22 07:00:19;;;;;;;8.40;5.43;;;-2.20;99.90;;;;;;4916395;29;20598;-78
2021/12/22 07:02:45;;;;;;;10.13;5.40;;;-2.40;99.90;;;;;;4916640;29;20039;-78
2021/12/22 07:05:12;;;;;;;8.20;6.55;;;-3.00;99.90;;;;;;4932171;29;20036;-79
2021/12/22 07:07:39;;;;;;;9.23;5.95;;;-3.20;99.90;;;;;;4916332;29;20024;-79
2021/12/22 07:10:08;;;;;;;10.80;4.57;;;-3.20;99.90;;;;;;4916416;29;20400;-78
2021/12/22 07:12:34;;;;;;;19.42;8.13;;;-3.20;99.90;;;;;;4916074;29;20023;-78
2021/12/22 07:15:02;;;;;;;10.18;5.53;;;-2.10;99.90;;;;;;4916273;29;20127;-78
2021/12/22 07:17:28;;;;;;;7.78;3.65;;;-2.40;99.90;;;;;;4915766;29;20130;-77
2021/12/22 07:19:53;;;;;;;8.55;6.65;;;-2.90;99.90;;;;;;4933156;29;20164;-82
2021/12/22 07:22:19;;;;;;;28.13;5.43;;;-2.50;99.90;;;;;;4933023;29;20605;-78
2021/12/22 07:24:45;;;;;;;9.38;4.32;;;-1.40;99.90;;;;;;4915968;29;20126;-78
2021/12/22 07:27:11;;;;;;;25.90;7.57;;;-3.00;99.90;;;;;;4933049;29;20433;-78
2021/12/22 07:29:37;;;;;;;10.68;6.53;;;-1.50;99.90;;;;;;4932652;29;20063;-78
2021/12/22 07:32:04;;;;;;;8.35;5.65;;;-2.30;99.90;;;;;;4914589;29;20122;-78
2021/12/22 07:34:55;;;;;;;17.23;9.05;;;-3.10;99.90;;;;;;4931205;29;20024;-78
2021/12/22 07:37:36;;;;;;;11.93;6.85;;;-3.10;99.90;;;;;;4913856;29;20658;-77
2021/12/22 07:40:04;;;;;;;6.25;2.80;;;-3.10;99.90;;;;;;4931123;29;20096;-78
2021/12/22 07:42:29;;;;;;;11.10;4.70;;;-3.20;99.90;;;;;;4931071;29;20046;-78
2021/12/22 07:44:55;;;;;;;7.93;6.85;;;-3.00;99.90;;;;;;4931016;29;20489;-78
2021/12/22 07:47:21;;;;;;;12.10;6.63;;;-3.10;99.90;;;;;;4929534;29;20386;-78
2021/12/22 07:49:46;;;;;;;9.05;5.65;;;-3.00;99.90;;;;;;4932086;29;20540;-78
2021/12/22 07:52:12;;;;;;;17.50;5.75;;;-2.70;99.90;;;;;;4932987;29;20659;-78
2021/12/22 07:54:39;;;;;;;11.80;4.75;;;-3.00;99.90;;;;;;4915470;29;20564;-79
2021/12/22 07:57:06;;;;;;;12.32;5.85;;;-2.40;99.90;;;;;;4932668;29;20163;-79
2021/12/22 07:59:31;;;;;;;13.95;7.65;;;-3.10;99.90;;;;;;4915370;29;20488;-80
2021/12/22 08:01:58;;;;;;;7.82;4.85;;;-3.00;99.90;;;;;;4915460;29;20034;-78
2021/12/22 08:04:24;;;;;;;8.32;6.40;;;-1.90;99.90;;;;;;4915188;29;20489;-80
2021/12/22 08:06:50;;;;;;;12.75;7.05;;;-2.90;99.90;;;;;;4932374;29;20050;-80
2021/12/22 08:09:16;;;;;;;8.05;6.85;;;-2.10;99.90;;;;;;4915593;29;20486;-79
2021/12/22 08:11:42;;;;;;;15.40;6.45;;;-2.20;99.90;;;;;;4932860;29;20098;-79
2021/12/22 08:14:07;;;;;;;12.57;6.88;;;-1.90;99.90;;;;;;4932962;29;20028;-80
2021/12/22 08:16:33;;;;;;;20.38;6.65;;;-2.50;99.90;;;;;;4932445;29;20042;-78
2021/12/22 08:18:59;;;;;;;10.20;4.15;;;-2.60;99.90;;;;;;4931052;29;20086;-78
2021/12/22 08:21:25;;;;;;;18.23;6.55;;;-2.30;99.90;;;;;;4915129;29;20161;-79
2021/12/22 08:23:50;;;;;;;8.48;5.57;;;-2.10;99.90;;;;;;4928252;29;20027;-79
2021/12/22 08:26:16;;;;;;;8.38;5.68;;;-1.30;99.90;;;;;;4931980;29;20038;-80
2021/12/22 08:28:42;;;;;;;13.68;8.48;;;-2.00;99.90;;;;;;4914624;29;20028;-81
2021/12/22 08:31:07;;;;;;;24.90;5.80;;;-2.00;99.90;;;;;;4932470;29;20028;-79
2021/12/22 08:33:38;;;;;;;19.02;9.68;;;-1.50;99.90;;;;;;4932593;29;20082;-80
2021/12/22 08:38:52;;;;;;;14.90;7.43;;;-2.00;99.90;;;;;;4932228;29;20039;-79
2021/12/22 08:41:31;;;;;;;18.20;7.57;;;-1.80;99.90;;;;;;4914737;29;20027;-79
2021/12/22 08:44:00;;;;;;;14.00;7.15;;;-1.30;99.90;;;;;;4914734;29;20063;-80
2021/12/22 08:46:28;;;;;;;8.25;6.28;;;-1.70;99.90;;;;;;4914894;29;20059;-79
2021/12/22 08:48:55;;;;;;;20.40;8.38;;;-1.60;99.90;;;;;;4914694;29;20425;-79
2021/12/22 08:51:21;;;;;;;13.90;6.63;;;-1.70;99.90;;;;;;4932066;29;20043;-79
2021/12/22 08:53:47;;;;;;;34.70;11.05;;;-1.40;99.90;;;;;;4915224;29;20024;-79
2021/12/22 08:56:13;;;;;;;18.15;8.15;;;-1.80;99.90;;;;;;4932503;29;20165;-79
2021/12/22 08:58:39;;;;;;;16.60;6.53;;;-1.70;99.90;;;;;;4932322;29;20397;-79
2021/12/22 09:01:06;;;;;;;15.73;7.65;;;-1.60;99.90;;;;;;4936287;29;20038;-79
2021/12/22 09:03:33;;;;;;;14.43;6.28;;;-1.40;99.90;;;;;;4918259;29;20461;-80
2021/12/22 09:05:59;;;;;;;18.08;7.60;;;-1.30;99.90;;;;;;4919123;29;20035;-80
2021/12/22 09:08:25;;;;;;;23.73;8.70;;;-1.30;99.90;;;;;;4919029;29;20385;-79
2021/12/22 09:10:51;;;;;;;22.35;9.10;;;-1.30;99.90;;;;;;4936479;29;20032;-79
2021/12/22 09:13:19;;;;;;;20.98;8.88;;;-0.90;99.90;;;;;;4936363;29;20035;-78
2021/12/22 09:15:45;;;;;;;19.38;8.07;;;-0.80;99.90;;;;;;4919048;29;20031;-79
2021/12/22 09:18:11;;;;;;;12.23;4.88;;;-1.20;99.90;;;;;;4936023;29;20027;-78
2021/12/22 09:20:37;;;;;;;22.55;9.50;;;-1.10;99.90;;;;;;4937070;29;20032;-76
2021/12/22 09:23:03;;;;;;;19.42;8.60;;;-0.90;99.90;;;;;;4936513;29;20034;-77
2021/12/22 09:25:28;;;;;;;18.40;7.68;;;-1.30;99.90;;;;;;4927099;29;20035;-79
2021/12/22 09:27:54;;;;;;;10.63;5.72;;;-1.30;99.90;;;;;;4918900;29;20555;-78
2021/12/22 09:30:35;;;;;;;13.60;6.03;;;-1.30;99.90;;;;;;4930982;29;20184;-93
2021/12/22 09:33:03;;;;;;;10.80;5.72;;;-1.30;99.90;;;;;;4946945;29;20047;-79
2021/12/22 09:35:29;;;;;;;23.52;7.43;;;-1.50;99.90;;;;;;4932397;29;20430;-80
2021/12/22 09:37:55;;;;;;;10.63;5.43;;;-1.60;99.90;;;;;;4920498;29;20079;-80
2021/12/22 09:40:20;;;;;;;15.65;8.77;;;-0.90;99.90;;;;;;4935293;29;20445;-87
2021/12/22 09:42:46;;;;;;;26.35;12.55;;;-1.30;99.90;;;;;;4918653;29;20537;-79
2021/12/22 09:45:12;;;;;;;12.20;5.93;;;-1.10;99.90;;;;;;4934119;29;20058;-77
2021/12/22 09:47:58;;;;;;;15.50;8.40;;;-1.50;99.90;;;;;;4936580;29;20023;-76
2021/12/22 09:50:38;;;;;;;11.90;5.93;;;-1.50;99.90;;;;;;4939261;29;20042;-81
2021/12/22 09:53:06;;;;;;;19.02;7.35;;;-1.40;99.90;;;;;;4929409;29;20030;-89
2021/12/22 09:55:34;;;;;;;17.40;5.07;;;-1.10;99.90;;;;;;4883369;29;20044;-85
2021/12/22 09:58:12;;;;;;;19.20;7.18;;;-1.00;99.90;;;;;;4915270;29;20036;-93
2021/12/22 10:00:40;;;;;;;20.15;9.55;;;-0.30;99.90;;;;;;4945897;29;20035;-80
2021/12/22 10:03:07;;;;;;;14.05;6.43;;;-0.20;99.90;;;;;;4937647;29;20051;-81
2021/12/22 10:05:35;;;;;;;12.95;6.90;;;-0.40;99.90;;;;;;4917398;29;20212;-88
2021/12/22 10:08:10;;;;;;;15.48;5.90;;;-0.20;99.90;;;;;;4916253;29;20153;-85
2021/12/22 10:11:25;;;;;;;11.38;4.38;;;-0.20;99.90;;;;;;4919636;29;20031;-96
2021/12/22 10:13:55;;;;;;;12.77;5.25;;;-0.60;99.90;;;;;;4926545;29;20040;-85
2021/12/22 10:16:26;;;;;;;9.60;7.82;;;-0.30;99.90;;;;;;4914953;29;20034;-80
2021/12/22 10:19:24;;;;;;;11.73;5.22;;;-0.30;99.90;;;;;;4916459;29;20332;-83
2021/12/22 10:21:57;;;;;;;14.18;6.05;;;-0.20;99.90;;;;;;4904779;29;20036;-79
2021/12/22 10:24:43;;;;;;;17.80;7.18;;;-0.20;99.90;;;;;;4934178;29;20032;-81
2021/12/22 10:27:29;;;;;;;17.35;8.10;;;;;;;;;;4932521;29;20038;-92
2021/12/22 10:29:55;;;;;;;4.90;3.50;;;;;;;;;;4932853;29;20031;-75
2021/12/22 10:32:21;;;;;;;12.57;7.65;;;0.00;99.90;;;;;;4935217;29;20591;-80
2021/12/22 10:35:03;;;;;;;10.05;5.90;;;0.10;99.90;;;;;;4931809;29;20036;-89
2021/12/22 10:37:44;;;;;;;9.25;6.65;;;0.00;99.90;;;;;;4936848;29;20031;-87
2021/12/22 10:40:30;;;;;;;17.42;8.80;;;0.10;99.90;;;;;;4937486;29;20038;-85
2021/12/22 10:42:56;;;;;;;7.15;4.45;;;0.20;99.90;;;;;;4932662;29;20087;-88
2021/12/22 10:45:24;;;;;;;19.13;7.82;;;0.20;99.90;;;;;;4932059;29;20055;-85
2021/12/22 10:50:43;;;;;;;21.75;8.45;;;0.20;99.90;;;;;;4933201;29;20175;-90
2021/12/22 10:53:12;;;;;;;14.57;5.93;;;0.20;99.90;;;;;;4932475;29;20028;-81
2021/12/22 10:55:42;;;;;;;10.15;5.75;;;0.60;99.90;;;;;;4936434;29;20429;-85
2021/12/22 10:58:14;;;;;;;20.80;8.07;;;0.60;99.90;;;;;;4931623;29;20034;-92
2021/12/22 11:00:40;;;;;;;12.13;6.18;;;0.40;99.90;;;;;;4931497;29;20034;-80
2021/12/22 11:03:14;;;;;;;9.82;4.60;;;0.50;99.90;;;;;;4931730;29;20031;-92
2021/12/22 11:05:48;;;;;;;17.20;7.60;;;0.50;99.90;;;;;;4932478;29;20050;-84
2021/12/22 11:08:22;;;;;;;17.15;8.52;;;0.60;99.90;;;;;;4931270;29;20153;-79
2021/12/22 11:10:49;;;;;;;16.45;8.68;;;0.60;99.90;;;;;;4930536;29;20130;-82
2021/12/22 11:13:20;;;;;;;16.83;9.63;;;0.70;99.90;;;;;;4931642;29;20034;-82
2021/12/22 11:15:46;;;;;;;10.82;5.20;;;0.70;99.90;;;;;;4930859;29;20552;-80
2021/12/22 11:18:28;;;;;;;15.00;4.90;;;;;;;;;;4930098;29;20035;-78
2021/12/22 11:21:09;;;;;;;18.10;5.18;;;0.60;99.90;;;;;;4929517;29;20027;-86
2021/12/22 11:23:35;;;;;;;15.73;5.45;;;0.70;99.90;;;;;;4930105;29;20023;-80
2021/12/22 11:26:01;;;;;;;20.88;7.75;;;0.70;99.90;;;;;;4927103;29;20520;-82
2021/12/22 11:28:27;;;;;;;14.43;8.05;;;0.80;99.90;;;;;;4930858;29;20030;-82
2021/12/22 11:30:53;;;;;;;17.25;6.53;;;;;;;;;;4924943;29;20028;-84
2021/12/22 11:33:20;;;;;;;22.45;6.43;;;;;;;;;;4913151;29;20060;-83
2021/12/22 11:35:46;;;;;;;14.13;6.95;;;0.90;99.90;;;;;;4911536;29;20051;-80
2021/12/22 11:38:12;;;;;;;23.25;8.65;;;0.80;99.90;;;;;;4910697;29;20401;-79
2021/12/22 11:40:37;;;;;;;16.33;7.40;;;0.80;99.90;;;;;;4910863;29;20032;-81
2021/12/22 11:43:03;;;;;;;17.15;5.15;;;;;;;;;;4912849;29;20849;-78
2021/12/22 11:45:31;;;;;;;21.23;6.95;;;0.90;99.90;;;;;;4911671;29;20192;-85
2021/12/22 11:47:57;;;;;;;13.80;7.88;;;0.90;99.90;;;;;;4912229;29;20031;-83
2021/12/22 11:50:27;;;;;;;13.32;6.72;;;0.90;99.90;;;;;;4911683;29;20059;-83
2021/12/22 11:53:00;;;;;;;7.47;4.15;;;0.90;99.90;;;;;;4914182;29;20038;-88
2021/12/22 11:55:42;;;;;;;13.82;5.13;;;0.90;99.90;;;;;;4912923;29;20556;-93
2021/12/22 11:58:17;;;;;;;6.45;5.80;;;0.90;99.90;;;;;;4896021;29;20036;-80
2021/12/22 12:00:59;;;;;;;9.10;4.97;;;0.90;99.90;;;;;;4910542;29;20024;-80
2021/12/22 12:03:26;;;;;;;5.03;4.03;;;;;;;;;;4914206;29;20030;-80
2021/12/22 12:06:07;;;;;;;11.05;7.05;;;0.90;99.90;;;;;;4912104;29;20050;-80
2021/12/22 12:08:34;;;;;;;9.43;4.78;;;0.90;99.90;;;;;;4913550;29;20024;-80
2021/12/22 12:11:00;;;;;;;7.43;6.65;;;1.00;99.90;;;;;;4910885;29;20071;-82
2021/12/22 12:13:37;;;;;;;15.30;5.63;;;;;;;;;;4910186;29;20517;-80
2021/12/22 12:22:11;;;;;;;9.82;5.10;;;1.20;99.90;;;;;;4851175;29;20060;-80
2021/12/22 12:25:02;;;;;;;9.27;5.03;;;1.20;99.90;;;;;;4888392;29;20057;-79
2021/12/22 12:27:41;;;;;;;5.60;5.20;;;1.20;99.90;;;;;;4928911;29;20490;-80
2021/12/22 12:30:08;;;;;;;23.42;7.82;;;1.30;99.90;;;;;;4944241;29;20513;-80
2021/12/22 12:32:40;;;;;;;22.95;7.45;;;;;;;;;;4928903;29;20082;-83
2021/12/22 12:35:18;;;;;;;22.35;6.80;;;1.20;99.90;;;;;;4916118;29;20035;-79
2021/12/22 12:38:01;;;;;;;17.98;8.45;;;1.30;99.90;;;;;;4917529;29;20020;-80
2021/12/22 12:40:55;;;;;;;11.52;5.40;;;1.40;99.90;;;;;;4934386;29;20292;-80
2021/12/22 12:43:43;;;;;;;13.15;6.07;;;1.40;99.90;;;;;;4948640;29;20126;-81
2021/12/22 12:46:21;;;;;;;8.73;3.63;;;1.40;99.90;;;;;;4948723;29;20175;-79
2021/12/22 12:48:49;;;;;;;12.85;5.18;;;1.40;99.90;;;;;;4948288;29;20036;-81
2021/12/22 12:51:24;;;;;;;16.13;6.22;;;1.40;99.90;;;;;;4916690;29;20571;-79
2021/12/22 12:53:51;;;;;;;13.70;5.53;;;1.40;99.90;;;;;;4934661;29;20031;-84
2021/12/22 12:56:19;;;;;;;13.35;8.52;;;1.40;99.90;;;;;;4935225;29;20035;-79
2021/12/22 12:59:07;;;;;;;12.20;6.82;;;1.40;99.90;;;;;;4916703;29;20031;-79
2021/12/22 13:01:45;;;;;;;5.38;4.22;;;1.50;99.90;;;;;;4916436;29;20121;-84
2021/12/22 13:04:21;;;;;;;22.20;7.68;;;1.50;99.90;;;;;;4933526;29;20075;-79
2021/12/22 13:06:51;;;;;;;18.30;5.57;;;1.50;99.90;;;;;;4933745;29;20043;-80
2021/12/22 13:09:25;;;;;;;17.98;6.22;;;1.50;99.90;;;;;;4917386;29;20070;-79
2021/12/22 13:17:53;;;;;;;18.23;9.23;;;2.60;99.90;;;;;;4931473;29;20164;-80
2021/12/22 13:20:31;;;;;;;25.48;7.90;;;3.20;99.90;;;;;;4935893;29;20020;-79
2021/12/22 13:23:03;;;;;;;27.13;8.00;;;3.80;99.90;;;;;;4933273;29;20052;-79